createdAt,value
2023-04-11T00:01:32.608Z,21.50
2023-04-11T00:04:01.555Z,21.50
2023-04-11T00:06:31.443Z,24.20
2023-04-11T00:09:01.313Z,18.90
2023-04-11T00:11:31.891Z,19.70
2023-04-11T00:14:00.567Z,18.90
2023-04-11T00:16:34.085Z,26.00
2023-04-11T00:19:02.962Z,20.90
2023-04-11T00:21:31.533Z,21.10
2023-04-11T00:24:00.056Z,26.90
2023-04-11T00:26:32.115Z,23.30
2023-04-11T00:29:01.037Z,19.20
2023-04-11T00:31:30.730Z,76.60
2023-04-11T00:33:59.303Z,124.40
2023-04-11T00:36:28.183Z,32.20
2023-04-11T00:38:59.037Z,20.10
2023-04-11T00:41:33.085Z,15.10
2023-04-11T00:44:01.882Z,16.50
2023-04-11T00:46:30.698Z,16.50
2023-04-11T00:49:10.052Z,17.90
2023-04-11T00:51:38.625Z,42.70
2023-04-11T00:54:11.633Z,14.70
2023-04-11T00:56:40.254Z,20.80
2023-04-11T00:59:09.462Z,19.00
2023-04-11T01:01:39.866Z,21.30
2023-04-11T01:04:09.767Z,17.90
2023-04-11T01:06:38.600Z,17.30
2023-04-11T01:09:08.909Z,17.50
2023-04-11T01:11:37.512Z,15.80
2023-04-11T01:14:06.971Z,14.80
2023-04-11T01:16:35.941Z,16.70
2023-04-11T01:19:04.802Z,22.50
2023-04-11T01:21:38.056Z,20.60
2023-04-11T01:24:07.934Z,17.00
2023-04-11T01:26:36.549Z,25.20
2023-04-11T01:29:05.236Z,24.40
2023-04-11T01:31:33.791Z,21.40
2023-04-11T01:34:02.742Z,20.30
2023-04-11T01:36:31.886Z,18.90
2023-04-11T01:39:01.691Z,20.00
2023-04-11T01:41:30.562Z,22.90
2023-04-11T01:44:04.324Z,24.90
2023-04-11T01:46:32.848Z,27.90
2023-04-11T01:49:01.797Z,14.70
2023-04-11T01:51:30.822Z,11.80
2023-04-11T01:54:00.650Z,17.40
2023-04-11T01:56:29.706Z,11.40
2023-04-11T01:58:59.410Z,13.00
2023-04-11T02:01:29.942Z,12.00
2023-04-11T02:03:59.628Z,17.40
2023-04-11T02:06:28.438Z,11.60
2023-04-11T02:08:57.479Z,13.20
2023-04-11T02:11:27.529Z,12.70
2023-04-11T02:13:56.017Z,11.10
2023-04-11T02:16:30.309Z,16.50
2023-04-11T02:19:00.332Z,15.60
2023-04-11T02:21:30.089Z,12.00
2023-04-11T02:24:01.053Z,9.90
2023-04-11T02:26:30.019Z,18.40
2023-04-11T02:28:58.505Z,12.70
2023-04-11T02:31:29.344Z,9.70
2023-04-11T02:33:58.097Z,13.30
2023-04-11T02:36:28.701Z,18.90
2023-04-11T02:38:57.369Z,25.30
2023-04-11T02:41:29.104Z,14.30
2023-04-11T02:44:01.875Z,13.50
2023-04-11T02:46:30.757Z,22.50
2023-04-11T02:48:59.680Z,16.30
2023-04-11T02:51:29.999Z,18.60
2023-04-11T02:53:59.263Z,17.10
2023-04-11T02:56:31.035Z,27.50
2023-04-11T02:59:00.754Z,24.00
2023-04-11T03:01:29.872Z,22.40
2023-04-11T03:04:00.811Z,15.00
2023-04-11T03:06:39.453Z,17.70
2023-04-11T03:09:08.136Z,14.90
2023-04-11T03:11:41.650Z,19.90
2023-04-11T03:14:10.554Z,44.00
2023-04-11T03:16:39.779Z,52.50
2023-04-11T03:19:09.135Z,40.80
2023-04-11T03:21:37.621Z,30.00
2023-04-11T03:24:06.755Z,23.60
2023-04-11T03:26:35.820Z,22.80
2023-04-11T03:31:48.231Z,23.90
2023-04-11T03:34:18.273Z,19.70
2023-04-11T03:36:47.962Z,19.30
2023-04-11T03:39:16.842Z,24.80
2023-04-11T03:41:45.396Z,18.00
2023-04-11T03:44:13.936Z,21.40
2023-04-11T03:46:43.256Z,25.30
2023-04-11T03:49:11.892Z,46.40
2023-04-11T03:51:40.388Z,27.10
2023-04-11T03:54:09.401Z,26.70
2023-04-11T03:56:41.701Z,26.90
2023-04-11T03:59:16.544Z,20.70
2023-04-11T04:02:15.999Z,23.20
2023-04-11T04:04:50.974Z,19.00
2023-04-11T04:07:45.257Z,67.60
2023-04-11T04:10:21.622Z,56.40
2023-04-11T04:12:53.704Z,39.80
2023-04-11T04:15:28.189Z,55.60
2023-04-11T04:17:59.932Z,32.30
2023-04-11T04:20:47.434Z,33.60
2023-04-11T04:23:18.407Z,30.50
2023-04-11T04:25:58.364Z,29.30
2023-04-11T04:28:34.038Z,32.40
2023-04-11T04:31:05.642Z,30.90
2023-04-11T04:33:42.979Z,25.10
2023-04-11T04:36:28.755Z,25.30
2023-04-11T04:39:02.369Z,26.40
2023-04-11T04:41:36.509Z,21.60
2023-04-11T04:44:05.571Z,27.70
2023-04-11T04:46:41.155Z,15.70
2023-04-11T04:49:09.910Z,18.00
2023-04-11T04:51:41.385Z,19.60
2023-04-11T04:54:10.356Z,15.40
2023-04-11T04:56:39.905Z,17.00
2023-04-11T04:59:14.731Z,10.60
2023-04-11T05:01:45.799Z,14.50
2023-04-11T05:04:15.203Z,33.40
2023-04-11T05:06:50.784Z,30.20
2023-04-11T05:09:28.432Z,33.60
2023-04-11T05:12:07.143Z,34.10
2023-04-11T05:14:37.810Z,30.40
2023-04-11T05:19:41.344Z,39.90
2023-04-11T05:22:10.319Z,27.40
2023-04-11T05:24:46.710Z,27.40
2023-04-11T05:27:15.803Z,63.60
2023-04-11T05:29:46.270Z,68.90
2023-04-11T05:32:21.636Z,43.10
2023-04-11T05:34:57.479Z,39.60
2023-04-11T05:37:37.506Z,35.60
2023-04-11T05:40:09.026Z,38.40
2023-04-11T05:42:38.033Z,47.10
2023-04-11T05:45:12.907Z,50.80
2023-04-11T05:47:42.468Z,31.90
2023-04-11T05:50:11.321Z,37.10
2023-04-11T05:52:40.650Z,26.20
2023-04-11T05:55:10.153Z,23.50
2023-04-11T05:57:41.909Z,35.50
2023-04-11T06:00:14.375Z,21.70
2023-04-11T06:02:48.058Z,21.70
2023-04-11T06:05:18.331Z,29.00
2023-04-11T06:07:48.287Z,19.80
2023-04-11T06:10:16.869Z,15.40
2023-04-11T06:12:51.095Z,14.90
2023-04-11T06:15:20.058Z,14.30
2023-04-11T06:17:48.604Z,18.90
2023-04-11T06:20:18.316Z,19.10
2023-04-11T06:22:51.673Z,24.90
2023-04-11T06:25:21.202Z,32.50
2023-04-11T06:27:51.030Z,50.50
2023-04-11T06:30:19.700Z,34.50
2023-04-11T06:32:48.668Z,51.50
2023-04-11T06:35:20.622Z,84.10
2023-04-11T06:37:49.294Z,34.90
2023-04-11T06:42:51.225Z,22.70
2023-04-11T06:45:19.781Z,25.00
2023-04-11T06:47:50.076Z,19.20
2023-04-11T06:50:18.962Z,20.80
2023-04-11T06:52:55.610Z,16.10
2023-04-11T06:55:24.341Z,18.50
2023-04-11T06:57:52.879Z,13.10
2023-04-11T07:00:21.779Z,16.50
2023-04-11T07:02:52.857Z,16.50
2023-04-11T07:05:22.141Z,19.30
2023-04-11T07:07:51.323Z,13.20
2023-04-11T07:10:20.413Z,14.70
2023-04-11T07:12:49.131Z,14.10
2023-04-11T07:15:21.044Z,27.50
2023-04-11T07:17:52.914Z,15.30
2023-04-11T07:20:21.695Z,15.00
2023-04-11T07:22:50.222Z,16.10
2023-04-11T07:25:22.873Z,16.30
2023-04-11T07:27:51.802Z,15.80
2023-04-11T07:30:21.018Z,11.20
2023-04-11T07:32:50.861Z,12.80
2023-04-11T07:35:20.220Z,8.70
2023-04-11T07:37:49.761Z,13.90
2023-04-11T07:40:18.230Z,22.20
2023-04-11T07:42:46.929Z,18.20
2023-04-11T07:45:15.689Z,14.40
2023-04-11T07:47:44.663Z,15.90
2023-04-11T07:50:13.744Z,19.70
2023-04-11T07:52:42.312Z,13.20
2023-04-11T07:55:11.281Z,10.70
2023-04-11T07:57:39.794Z,10.10
2023-04-11T08:00:11.561Z,12.20
2023-04-11T08:02:44.569Z,9.40
2023-04-11T08:05:13.515Z,21.90
2023-04-11T08:07:48.962Z,18.50
2023-04-11T08:10:18.153Z,19.40
2023-04-11T08:12:46.747Z,13.40
2023-04-11T08:15:17.391Z,12.50
2023-04-11T08:17:46.561Z,12.90
2023-04-11T08:20:15.930Z,17.10
2023-04-11T08:22:53.341Z,12.70
2023-04-11T08:25:24.792Z,13.50
2023-04-11T08:27:53.316Z,23.50
2023-04-11T08:30:26.447Z,22.30
2023-04-11T08:32:55.104Z,14.30
2023-04-11T08:35:23.689Z,8.40
2023-04-11T08:37:52.269Z,7.80
2023-04-11T08:40:20.958Z,20.40
2023-04-11T08:42:50.180Z,10.30
2023-04-11T08:45:20.123Z,13.40
2023-04-11T08:47:50.030Z,16.30
2023-04-11T08:50:18.629Z,14.90
2023-04-11T08:52:47.514Z,13.00
2023-04-11T08:55:16.287Z,10.00
2023-04-11T08:57:44.992Z,9.40
2023-04-11T09:00:15.020Z,11.80
2023-04-11T09:02:58.240Z,22.10
2023-04-11T09:05:33.096Z,15.00
2023-04-11T09:08:10.834Z,29.00
2023-04-11T09:10:41.319Z,17.40
2023-04-11T09:13:23.026Z,25.10
2023-04-11T09:16:05.443Z,12.10
2023-04-11T09:18:41.980Z,18.00
2023-04-11T09:21:14.872Z,13.40
2023-04-11T09:23:44.695Z,13.30
2023-04-11T09:26:13.394Z,10.10
2023-04-11T09:28:52.929Z,10.40
2023-04-11T09:31:22.086Z,6.90
2023-04-11T09:33:54.933Z,24.30
2023-04-11T09:36:25.243Z,28.20
2023-04-11T09:38:54.245Z,15.40
2023-04-11T09:41:36.648Z,16.30
2023-04-11T09:44:06.052Z,11.50
2023-04-11T09:46:35.080Z,13.40
2023-04-11T09:49:03.979Z,16.10
2023-04-11T09:51:37.006Z,18.30
2023-04-11T09:56:36.677Z,18.90
2023-04-11T09:59:06.236Z,11.30
2023-04-11T10:01:35.567Z,11.40
2023-04-11T10:04:05.034Z,17.30
2023-04-11T10:06:38.944Z,10.60
2023-04-11T10:09:11.582Z,11.20
2023-04-11T10:11:44.829Z,14.50
2023-04-11T10:14:39.928Z,25.90
2023-04-11T10:17:22.637Z,14.60
2023-04-11T10:19:58.956Z,18.20
2023-04-11T10:22:53.728Z,12.20
2023-04-11T10:25:25.539Z,15.80
2023-04-11T10:28:01.550Z,9.80
2023-04-11T10:30:40.599Z,47.90
2023-04-11T10:33:13.748Z,36.00
2023-04-11T10:36:13.045Z,14.20
2023-04-11T10:38:43.569Z,13.40
2023-04-11T10:41:42.455Z,21.50
2023-04-11T10:44:21.044Z,17.60
2023-04-11T10:46:50.754Z,18.00
2023-04-11T10:49:36.779Z,28.90
2023-04-11T10:52:17.174Z,24.80
2023-04-11T10:54:48.979Z,15.90
2023-04-11T10:57:19.008Z,11.50
2023-04-11T10:59:50.722Z,11.40
2023-04-11T11:02:20.130Z,9.10
2023-04-11T11:04:49.079Z,20.70
2023-04-11T11:07:18.977Z,18.10
2023-04-11T11:09:49.176Z,14.30
2023-04-11T11:12:17.744Z,15.20
2023-04-11T11:14:47.355Z,17.20
2023-04-11T11:17:16.643Z,19.00
2023-04-11T11:19:48.693Z,9.90
2023-04-11T11:22:25.775Z,15.60
2023-04-11T11:24:54.578Z,10.20
2023-04-11T11:27:24.260Z,12.70
2023-04-11T11:29:53.458Z,26.40
2023-04-11T11:32:28.536Z,19.00
2023-04-11T11:34:58.984Z,17.90
2023-04-11T11:37:27.780Z,11.20
2023-04-11T11:39:57.227Z,16.10
2023-04-11T11:42:26.010Z,9.50
2023-04-11T11:44:54.480Z,10.10
2023-04-11T11:47:23.896Z,16.20
2023-04-11T11:49:57.088Z,15.20
2023-04-11T11:52:33.248Z,18.40
2023-04-11T11:55:11.459Z,21.50
2023-04-11T11:57:50.380Z,15.40
2023-04-11T12:00:26.206Z,16.60
2023-04-11T12:02:57.161Z,14.30
2023-04-11T12:05:30.617Z,14.70
2023-04-11T12:08:01.288Z,10.90
2023-04-11T12:10:40.265Z,14.50
2023-04-11T12:13:19.771Z,15.00
2023-04-11T12:15:53.441Z,16.90
2023-04-11T12:18:28.009Z,26.30
2023-04-11T12:20:56.820Z,22.50
2023-04-11T12:23:25.229Z,14.00
2023-04-11T12:25:53.718Z,26.00
2023-04-11T12:28:24.011Z,21.80
2023-04-11T12:30:52.550Z,15.90
2023-04-11T12:33:23.068Z,18.30
2023-04-11T12:35:51.749Z,12.70
2023-04-11T12:38:23.765Z,6.90
2023-04-11T12:41:13.866Z,14.10
2023-04-11T12:43:42.888Z,11.70
2023-04-11T12:46:11.795Z,13.70
2023-04-11T12:48:40.540Z,8.30
2023-04-11T12:51:09.489Z,13.10
2023-04-11T12:53:37.856Z,13.60
2023-04-11T12:56:07.467Z,9.10
2023-04-11T12:58:37.666Z,9.70
2023-04-11T13:01:07.695Z,16.60
2023-04-11T13:03:38.515Z,15.90
2023-04-11T13:06:08.277Z,19.10
2023-04-11T13:08:37.880Z,10.20
2023-04-11T13:11:06.581Z,20.80
2023-04-11T13:13:36.844Z,16.20
2023-04-11T13:16:05.685Z,17.20
2023-04-11T13:18:34.165Z,13.20
2023-04-11T13:21:02.865Z,16.00
2023-04-11T13:23:31.309Z,10.70
2023-04-11T13:26:02.634Z,22.60
2023-04-11T13:28:32.072Z,11.90
2023-04-11T13:31:00.954Z,14.60
2023-04-11T13:33:30.287Z,17.20
2023-04-11T13:35:59.037Z,13.50
2023-04-11T13:38:27.520Z,17.30
2023-04-11T13:40:56.885Z,13.10
2023-04-11T13:43:27.304Z,15.30
2023-04-11T13:45:56.014Z,13.10
2023-04-11T13:48:32.441Z,12.30
2023-04-11T13:51:01.212Z,16.80
2023-04-11T13:53:30.313Z,13.20
2023-04-11T13:55:59.095Z,13.20
2023-04-11T13:58:27.734Z,7.30
2023-04-11T14:00:57.195Z,14.10
2023-04-11T14:03:29.580Z,12.50
2023-04-11T14:05:58.272Z,13.80
2023-04-11T14:08:27.958Z,8.90
2023-04-11T14:10:57.725Z,10.50
2023-04-11T14:13:27.445Z,13.40
2023-04-11T14:16:07.974Z,13.30
2023-04-11T14:18:38.188Z,11.70
2023-04-11T14:21:07.459Z,6.70
2023-04-11T14:23:36.520Z,16.10
2023-04-11T14:26:08.592Z,16.70
2023-04-11T14:28:37.767Z,21.10
2023-04-11T14:31:06.836Z,21.10
2023-04-11T14:33:41.903Z,11.20
2023-04-11T14:36:10.602Z,18.20
2023-04-11T14:38:39.025Z,10.80
2023-04-11T14:41:07.726Z,10.00
2023-04-11T14:43:36.336Z,7.50
2023-04-11T14:46:10.026Z,18.30
2023-04-11T14:48:39.449Z,14.50
2023-04-11T14:51:08.705Z,12.10
2023-04-11T14:53:37.529Z,7.50
2023-04-11T14:56:06.690Z,10.60
2023-04-11T14:58:36.626Z,15.10
2023-04-11T15:01:05.442Z,11.60
2023-04-11T15:03:34.965Z,12.70
2023-04-11T15:06:07.005Z,15.60
2023-04-11T15:08:35.922Z,13.70
2023-04-11T15:11:04.681Z,9.00
2023-04-11T15:13:34.657Z,12.60
2023-04-11T15:16:05.010Z,7.70
2023-04-11T15:18:33.540Z,7.70
2023-04-11T15:21:04.863Z,9.10
2023-04-11T15:23:33.797Z,16.70
2023-04-11T15:26:03.111Z,7.80
2023-04-11T15:28:39.001Z,13.40
2023-04-11T15:31:09.239Z,8.30
2023-04-11T15:33:38.572Z,8.30
2023-04-11T15:36:08.340Z,10.00
2023-04-11T15:38:37.157Z,16.10
2023-04-11T15:41:05.985Z,9.30
2023-04-11T15:43:38.912Z,21.00
2023-04-11T15:46:09.078Z,10.60
2023-04-11T15:48:41.581Z,13.00
2023-04-11T15:51:11.483Z,12.60
2023-04-11T15:53:40.470Z,19.50
2023-04-11T15:56:09.329Z,21.60
2023-04-11T15:58:38.230Z,9.60
2023-04-11T16:01:23.190Z,10.40
2023-04-11T16:03:59.817Z,10.50
2023-04-11T16:06:28.468Z,10.20
2023-04-11T16:08:57.102Z,9.90
2023-04-11T16:11:26.812Z,9.00
2023-04-11T16:13:56.496Z,14.20
2023-04-11T16:16:25.568Z,9.50
2023-04-11T16:18:56.749Z,16.20
2023-04-11T16:21:25.138Z,13.20
2023-04-11T16:23:56.935Z,14.20
2023-04-11T16:26:25.693Z,21.30
2023-04-11T16:28:54.164Z,11.90
2023-04-11T16:31:25.160Z,15.80
2023-04-11T16:33:55.410Z,14.00
2023-04-11T16:36:24.426Z,9.80
2023-04-11T16:38:55.405Z,17.80
2023-04-11T16:41:26.219Z,14.40
2023-04-11T16:43:56.215Z,10.40
2023-04-11T16:46:25.176Z,11.70
2023-04-11T16:48:57.157Z,15.80
2023-04-11T16:51:26.309Z,9.70
2023-04-11T16:53:55.177Z,14.80
2023-04-11T16:56:25.725Z,15.80
2023-04-11T16:58:55.468Z,14.20
2023-04-11T17:01:24.158Z,12.90
2023-04-11T17:03:54.256Z,17.40
2023-04-11T17:06:23.096Z,14.10
2023-04-11T17:08:51.841Z,12.90
2023-04-11T17:11:20.656Z,13.00
2023-04-11T17:13:49.732Z,20.80
2023-04-11T17:16:18.695Z,12.90
2023-04-11T17:18:47.772Z,14.30
2023-04-11T17:21:19.090Z,14.00
2023-04-11T17:23:47.979Z,16.70
2023-04-11T17:26:17.834Z,16.40
2023-04-11T17:28:47.918Z,28.00
2023-04-11T17:31:17.733Z,13.00
2023-04-11T17:33:47.082Z,24.30
2023-04-11T17:36:15.530Z,14.60
2023-04-11T17:38:44.847Z,20.40
2023-04-11T17:41:15.486Z,19.60
2023-04-11T17:43:47.159Z,13.10
2023-04-11T17:46:15.757Z,15.30
2023-04-11T17:48:45.159Z,14.20
2023-04-11T17:51:13.704Z,20.70
2023-04-11T17:53:44.496Z,16.70
2023-04-11T17:56:14.701Z,14.90
2023-04-11T17:58:45.512Z,18.00
2023-04-11T18:01:16.272Z,21.90
2023-04-11T18:03:47.444Z,15.10
2023-04-11T18:06:16.775Z,20.10
2023-04-11T18:08:50.524Z,18.30
2023-04-11T18:11:21.226Z,15.80
2023-04-11T18:13:50.482Z,23.00
2023-04-11T18:16:19.308Z,14.80
2023-04-11T18:18:52.277Z,17.70
2023-04-11T18:21:21.836Z,19.40
2023-04-11T18:23:50.642Z,20.10
2023-04-11T18:26:19.585Z,20.00
2023-04-11T18:28:53.318Z,12.60
2023-04-11T18:32:20.000Z,19.60
2023-04-11T18:34:48.777Z,19.60
2023-04-11T18:37:19.616Z,16.20
2023-04-11T18:39:49.909Z,13.00
2023-04-11T18:42:20.828Z,18.00
2023-04-11T18:44:49.591Z,10.40
2023-04-11T18:47:18.931Z,14.00
2023-04-11T18:49:47.982Z,14.70
2023-04-11T18:52:16.726Z,17.10
2023-04-11T18:54:54.056Z,16.40
2023-04-11T18:57:23.379Z,12.30
2023-04-11T18:59:54.542Z,23.00
2023-04-11T19:02:24.960Z,17.60
2023-04-11T19:04:55.592Z,19.80
2023-04-11T19:07:24.469Z,15.00
2023-04-11T19:09:53.336Z,14.50
2023-04-11T19:12:22.024Z,19.40
2023-04-11T19:14:51.010Z,16.10
2023-04-11T19:17:23.001Z,14.10
2023-04-11T19:19:52.403Z,14.40
2023-04-11T19:22:21.501Z,20.20
2023-04-11T19:24:50.642Z,18.00
2023-04-11T19:27:21.548Z,17.10
2023-04-11T19:29:50.289Z,13.60
2023-04-11T19:32:19.132Z,15.00
2023-04-11T19:34:49.745Z,14.90
2023-04-11T19:37:22.934Z,19.40
2023-04-11T19:39:54.402Z,14.60
2023-04-11T19:42:25.194Z,24.70
2023-04-11T19:44:54.067Z,23.80
2023-04-11T19:47:22.633Z,19.90
2023-04-11T19:49:52.036Z,16.90
2023-04-11T19:52:20.810Z,16.00
2023-04-11T19:54:49.384Z,12.10
2023-04-11T19:57:18.176Z,11.80
2023-04-11T19:59:46.753Z,14.50
2023-04-11T20:02:16.140Z,15.10
2023-04-11T20:04:46.838Z,13.60
2023-04-11T20:07:16.746Z,13.80
2023-04-11T20:09:51.647Z,14.60
2023-04-11T20:12:20.918Z,18.10
2023-04-11T20:14:49.820Z,23.00
2023-04-11T20:17:19.803Z,14.30
2023-04-11T20:19:52.715Z,17.00
2023-04-11T20:22:22.857Z,16.20
2023-04-11T20:24:52.628Z,20.90
2023-04-11T20:27:21.544Z,12.50
2023-04-11T20:29:56.898Z,24.60
2023-04-11T20:32:26.179Z,18.50
2023-04-11T20:34:55.219Z,19.50
2023-04-11T20:37:24.715Z,19.40
2023-04-11T20:39:53.300Z,18.90
2023-04-11T20:42:23.041Z,24.30
2023-04-11T20:44:53.749Z,25.80
2023-04-11T20:47:22.390Z,21.60
2023-04-11T20:49:56.360Z,19.10
2023-04-11T20:52:25.285Z,18.60
2023-04-11T20:54:54.241Z,18.90
2023-04-11T20:57:23.295Z,24.30
2023-04-11T20:59:51.852Z,14.20
2023-04-11T21:02:21.014Z,19.20
2023-04-11T21:04:53.186Z,15.80
2023-04-11T21:07:24.895Z,17.70
2023-04-11T21:09:54.682Z,10.80
2023-04-11T21:12:23.309Z,18.10
2023-04-11T21:14:52.472Z,20.30
2023-04-11T21:17:21.847Z,15.10
2023-04-11T21:19:50.819Z,16.20
2023-04-11T21:22:21.892Z,18.60
2023-04-11T21:24:50.633Z,16.30
2023-04-11T21:27:19.765Z,20.50
2023-04-11T21:29:48.396Z,22.90
2023-04-11T21:32:19.067Z,14.70
2023-04-11T21:34:47.618Z,13.80
2023-04-11T21:37:16.362Z,16.50
2023-04-11T21:39:54.025Z,15.90
2023-04-11T21:42:22.548Z,20.10
2023-04-11T21:44:51.238Z,18.80
2023-04-11T21:47:19.776Z,15.50
2023-04-11T21:49:48.755Z,17.60
2023-04-11T21:52:18.897Z,13.30
2023-04-11T21:54:50.087Z,21.50
2023-04-11T21:57:18.720Z,18.00
2023-04-11T21:59:47.257Z,18.90
2023-04-11T22:02:16.443Z,17.80
2023-04-11T22:05:03.810Z,14.80
2023-04-11T22:07:39.138Z,16.10
2023-04-11T22:10:12.117Z,19.50
2023-04-11T22:12:42.128Z,19.30
2023-04-11T22:15:12.881Z,23.50
2023-04-11T22:17:46.341Z,17.40
2023-04-11T22:20:16.728Z,14.90
2023-04-11T22:22:45.858Z,21.10
2023-04-11T22:25:15.290Z,19.80
2023-04-11T22:27:44.883Z,18.50
2023-04-11T22:30:14.924Z,19.90
2023-04-11T22:32:44.165Z,19.30
2023-04-11T22:35:13.865Z,18.50
2023-04-11T22:37:43.044Z,21.90
2023-04-11T22:40:12.309Z,24.70
2023-04-11T22:42:41.872Z,15.20
2023-04-11T22:45:10.918Z,13.20
2023-04-11T22:47:40.317Z,24.10
2023-04-11T22:50:09.555Z,21.20
2023-04-11T22:52:38.090Z,14.00
2023-04-11T22:55:07.563Z,14.50
2023-04-11T22:57:41.076Z,16.50
2023-04-11T23:02:40.164Z,18.10
2023-04-11T23:05:09.670Z,17.30
2023-04-11T23:07:39.004Z,17.20
2023-04-11T23:10:10.711Z,16.90
2023-04-11T23:12:41.828Z,14.70
2023-04-11T23:15:11.462Z,14.70
2023-04-11T23:17:41.541Z,18.60
2023-04-11T23:20:13.786Z,15.50
2023-04-11T23:22:44.118Z,14.40
2023-04-11T23:25:12.889Z,16.50
2023-04-11T23:27:47.878Z,20.80
2023-04-11T23:30:17.802Z,17.60
2023-04-11T23:32:47.730Z,17.30
2023-04-11T23:35:19.568Z,17.40
2023-04-11T23:37:48.644Z,13.80
2023-04-11T23:40:24.903Z,16.00
2023-04-11T23:42:57.598Z,16.80
2023-04-11T23:45:26.841Z,21.80
2023-04-11T23:48:02.871Z,17.50
2023-04-11T23:50:33.079Z,22.20
2023-04-11T23:53:02.099Z,20.90
2023-04-11T23:55:32.495Z,20.10
2023-04-11T23:58:01.064Z,19.90
